createdAt,value
2018-09-12T00:00:49.152Z,64.40
2018-09-12T00:03:22.572Z,64.50
2018-09-12T00:05:57.007Z,65.50
2018-09-12T00:08:30.414Z,65.30
2018-09-12T00:11:03.823Z,65.60
2018-09-12T00:13:37.317Z,66.60
2018-09-12T00:16:12.738Z,65.50
2018-09-12T00:18:46.241Z,66.50
2018-09-12T00:21:19.645Z,66.50
2018-09-12T00:23:53.054Z,66.70
2018-09-12T00:26:26.451Z,66.60
2018-09-12T00:28:59.860Z,66.70
2018-09-12T00:31:33.271Z,66.30
2018-09-12T00:34:06.720Z,66.20
2018-09-12T00:36:40.123Z,67.20
2018-09-12T00:39:13.557Z,67.40
2018-09-12T00:41:48.978Z,67.10
2018-09-12T00:44:22.402Z,66.90
2018-09-12T00:46:55.791Z,67.00
2018-09-12T00:49:29.207Z,66.60
2018-09-12T00:52:02.630Z,66.20
2018-09-12T00:54:36.036Z,65.60
2018-09-12T00:57:10.467Z,65.30
2018-09-12T00:59:43.893Z,65.40
2018-09-12T01:02:17.287Z,65.80
2018-09-12T01:04:50.700Z,65.80
2018-09-12T01:07:24.091Z,66.50
2018-09-12T01:09:57.499Z,66.20
2018-09-12T01:12:30.893Z,65.80
2018-09-12T01:15:04.323Z,66.10
2018-09-12T01:17:37.731Z,66.80
2018-09-12T01:20:11.159Z,66.30
2018-09-12T01:22:44.572Z,66.00
2018-09-12T01:25:18.002Z,66.50
2018-09-12T01:27:56.874Z,65.70
2018-09-12T01:30:30.319Z,66.40
2018-09-12T01:33:03.779Z,65.60
2018-09-12T01:35:37.186Z,65.60
2018-09-12T01:38:10.582Z,65.70
2018-09-12T01:40:44.070Z,65.70
2018-09-12T01:43:17.462Z,65.30
2018-09-12T01:45:50.884Z,65.10
2018-09-12T01:48:24.285Z,65.20
2018-09-12T01:50:57.690Z,65.70
2018-09-12T01:53:31.090Z,66.10
2018-09-12T01:56:04.530Z,66.10
2018-09-12T01:58:37.923Z,66.30
2018-09-12T02:01:11.331Z,66.50
2018-09-12T02:03:44.732Z,66.00
2018-09-12T02:06:18.129Z,65.30
2018-09-12T02:08:51.514Z,65.10
2018-09-12T02:11:25.027Z,65.40
2018-09-12T02:13:58.423Z,65.50
2018-09-12T02:16:31.822Z,65.80
2018-09-12T02:19:05.258Z,66.90
2018-09-12T02:21:38.683Z,66.30
2018-09-12T02:24:12.075Z,66.70
2018-09-12T02:26:45.602Z,67.40
2018-09-12T02:29:18.945Z,67.90
2018-09-12T02:31:52.362Z,67.40
2018-09-12T02:34:25.742Z,67.80
2018-09-12T02:36:59.172Z,67.60
2018-09-12T02:39:32.555Z,67.70
2018-09-12T02:42:06.026Z,67.70
2018-09-12T02:44:39.423Z,67.70
2018-09-12T02:47:18.031Z,68.80
2018-09-12T02:49:51.418Z,68.10
2018-09-12T02:52:24.823Z,67.20
2018-09-12T02:54:58.203Z,68.10
2018-09-12T02:57:31.617Z,67.40
2018-09-12T03:00:05.687Z,67.90
2018-09-12T03:02:39.202Z,68.50
2018-09-12T03:05:12.618Z,68.90
2018-09-12T03:07:46.094Z,68.50
2018-09-12T03:10:19.480Z,68.10
2018-09-12T03:12:52.886Z,68.70
2018-09-12T03:15:26.276Z,68.10
2018-09-12T03:17:59.704Z,68.60
2018-09-12T03:20:33.148Z,68.30
2018-09-12T03:23:07.606Z,69.00
2018-09-12T03:25:42.523Z,69.00
2018-09-12T03:28:15.956Z,68.50
2018-09-12T03:30:49.358Z,70.00
2018-09-12T03:33:22.773Z,68.10
2018-09-12T03:35:56.359Z,68.30
2018-09-12T03:38:29.830Z,68.60
2018-09-12T03:41:03.319Z,68.40
2018-09-12T03:43:36.790Z,68.90
2018-09-12T03:46:11.226Z,68.70
2018-09-12T03:48:44.691Z,68.30
2018-09-12T03:51:18.383Z,67.70
2018-09-12T03:53:51.786Z,69.20
2018-09-12T03:56:25.171Z,67.70
2018-09-12T03:58:58.591Z,68.40
2018-09-12T04:01:31.981Z,68.10
2018-09-12T04:04:05.423Z,68.80
2018-09-12T04:06:38.818Z,68.90
2018-09-12T04:09:12.214Z,69.00
2018-09-12T04:11:45.615Z,68.80
2018-09-12T04:14:19.051Z,68.00
2018-09-12T04:16:52.640Z,70.40
2018-09-12T04:19:25.931Z,71.30
2018-09-12T04:21:59.336Z,72.00
2018-09-12T04:24:32.735Z,72.60
2018-09-12T04:27:06.135Z,72.90
2018-09-12T04:29:39.552Z,72.30
2018-09-12T04:32:12.949Z,71.70
2018-09-12T04:34:46.408Z,72.40
2018-09-12T04:37:19.820Z,73.30
2018-09-12T04:39:53.223Z,72.80
2018-09-12T04:42:26.611Z,72.00
2018-09-12T04:45:00.019Z,72.00
2018-09-12T04:47:33.419Z,72.00
2018-09-12T04:50:06.896Z,71.80
2018-09-12T04:52:40.311Z,72.80
2018-09-12T04:55:13.824Z,72.30
2018-09-12T04:57:47.211Z,72.40
2018-09-12T05:00:20.623Z,72.70
2018-09-12T05:02:54.053Z,72.60
2018-09-12T05:05:27.552Z,72.00
2018-09-12T05:08:00.944Z,71.80
2018-09-12T05:10:34.358Z,72.30
2018-09-12T05:13:07.753Z,72.80
2018-09-12T05:15:41.288Z,72.70
2018-09-12T05:18:14.687Z,73.00
2018-09-12T05:20:48.082Z,72.70
2018-09-12T05:23:21.476Z,72.50
2018-09-12T05:25:54.877Z,72.70
2018-09-12T05:28:28.380Z,72.70
2018-09-12T05:31:01.759Z,73.20
2018-09-12T05:33:35.148Z,73.40
2018-09-12T05:36:08.573Z,73.60
2018-09-12T05:38:41.965Z,74.00
2018-09-12T05:41:15.411Z,74.20
2018-09-12T05:43:48.786Z,74.20
2018-09-12T05:46:22.168Z,74.90
2018-09-12T05:48:55.533Z,75.10
2018-09-12T05:51:28.923Z,74.80
2018-09-12T05:54:02.304Z,75.10
2018-09-12T05:56:35.692Z,74.70
2018-09-12T05:59:09.082Z,75.00
2018-09-12T06:01:42.599Z,75.20
2018-09-12T06:04:15.967Z,74.50
2018-09-12T06:06:49.392Z,74.30
2018-09-12T06:09:30.484Z,74.30
2018-09-12T06:12:03.875Z,74.70
2018-09-12T06:14:45.929Z,74.60
2018-09-12T06:17:19.327Z,75.10
2018-09-12T06:19:53.928Z,74.90
2018-09-12T06:22:27.311Z,74.60
2018-09-12T06:25:00.775Z,76.40
2018-09-12T06:27:34.209Z,77.60
2018-09-12T06:30:07.807Z,76.70
2018-09-12T06:32:41.199Z,76.30
2018-09-12T06:35:14.618Z,76.40
2018-09-12T06:37:48.077Z,75.80
2018-09-12T06:40:21.449Z,72.70
2018-09-12T06:42:55.683Z,72.60
2018-09-12T06:45:29.043Z,73.40
2018-09-12T06:48:02.444Z,73.50
2018-09-12T06:50:35.817Z,75.00
2018-09-12T06:53:09.212Z,73.70
2018-09-12T06:55:42.666Z,72.40
2018-09-12T06:58:16.076Z,72.50
2018-09-12T07:00:49.519Z,74.50
2018-09-12T07:03:22.915Z,74.90
2018-09-12T07:05:56.304Z,73.00
2018-09-12T07:08:29.698Z,75.10
2018-09-12T07:11:03.087Z,72.90
2018-09-12T07:13:36.527Z,73.10
2018-09-12T07:16:09.923Z,74.20
2018-09-12T07:18:43.327Z,73.70
2018-09-12T07:21:16.715Z,76.30
2018-09-12T07:23:50.110Z,78.10
2018-09-12T07:26:23.486Z,77.40
2018-09-12T07:28:56.895Z,78.50
2018-09-12T07:31:30.267Z,78.40
2018-09-12T07:34:03.739Z,77.60
2018-09-12T07:36:37.127Z,75.80
2018-09-12T07:39:12.261Z,73.60
2018-09-12T07:41:45.792Z,74.40
2018-09-12T07:44:19.182Z,77.40
2018-09-12T07:46:52.552Z,75.30
2018-09-12T07:49:25.972Z,72.20
2018-09-12T07:51:59.452Z,72.80
2018-09-12T07:54:32.823Z,72.10
2018-09-12T07:57:06.245Z,72.20
2018-09-12T07:59:39.622Z,73.20
2018-09-12T08:02:13.028Z,69.80
2018-09-12T08:04:46.412Z,70.50
2018-09-12T08:07:21.531Z,71.50
2018-09-12T08:09:54.904Z,70.70
2018-09-12T08:12:28.323Z,68.60
2018-09-12T08:15:01.725Z,69.30
2018-09-12T08:17:35.144Z,69.90
2018-09-12T08:20:08.535Z,70.00
2018-09-12T08:22:41.931Z,68.30
2018-09-12T08:25:15.335Z,69.30
2018-09-12T08:27:48.725Z,67.90
2018-09-12T08:30:22.115Z,68.60
2018-09-12T08:32:55.507Z,67.60
2018-09-12T08:35:28.883Z,67.80
2018-09-12T08:38:02.303Z,66.80
2018-09-12T08:40:35.715Z,65.60
2018-09-12T08:43:09.208Z,64.20
2018-09-12T08:45:42.871Z,64.60
2018-09-12T08:48:16.283Z,68.60
2018-09-12T08:50:50.466Z,67.60
2018-09-12T08:53:23.920Z,64.60
2018-09-12T08:55:57.303Z,64.80
2018-09-12T08:58:30.704Z,63.50
2018-09-12T09:01:04.103Z,63.20
2018-09-12T09:03:37.489Z,64.10
2018-09-12T09:06:10.903Z,63.30
2018-09-12T09:08:44.300Z,62.70
2018-09-12T09:11:17.731Z,63.90
2018-09-12T09:13:51.180Z,58.70
2018-09-12T09:16:24.570Z,60.20
2018-09-12T09:18:57.965Z,58.30
2018-09-12T09:21:32.134Z,59.00
2018-09-12T09:24:05.590Z,57.60
2018-09-12T09:26:38.968Z,57.10
2018-09-12T09:29:12.369Z,57.10
2018-09-12T09:31:45.755Z,56.70
2018-09-12T09:34:19.151Z,56.50
2018-09-12T09:36:53.608Z,55.40
2018-09-12T09:39:27.016Z,55.40
2018-09-12T09:42:00.419Z,57.50
2018-09-12T09:44:33.827Z,56.30
2018-09-12T09:47:07.223Z,56.30
2018-09-12T09:49:40.791Z,54.80
2018-09-12T09:52:14.328Z,56.50
2018-09-12T09:54:47.810Z,54.20
2018-09-12T09:57:21.514Z,53.90
2018-09-12T09:59:54.964Z,55.60
2018-09-12T10:02:33.589Z,53.30
2018-09-12T10:05:12.394Z,53.60
2018-09-12T10:07:46.766Z,52.80
2018-09-12T10:10:20.177Z,53.30
2018-09-12T10:12:53.575Z,54.80
2018-09-12T10:15:26.983Z,52.20
2018-09-12T10:18:00.383Z,52.20
2018-09-12T10:20:33.847Z,51.90
2018-09-12T10:23:07.339Z,50.70
2018-09-12T10:25:40.757Z,51.70
2018-09-12T10:28:14.197Z,51.80
2018-09-12T10:30:47.683Z,49.30
2018-09-12T10:33:22.339Z,49.00
2018-09-12T10:35:55.920Z,49.10
2018-09-12T10:38:29.336Z,50.50
2018-09-12T10:41:02.759Z,48.90
2018-09-12T10:43:36.256Z,51.50
2018-09-12T10:46:09.675Z,51.00
2018-09-12T10:48:43.083Z,50.10
2018-09-12T10:51:16.599Z,48.80
2018-09-12T10:53:50.136Z,49.00
2018-09-12T10:56:23.556Z,49.50
2018-09-12T10:58:57.004Z,47.50
2018-09-12T11:01:30.459Z,49.10
2018-09-12T11:04:03.991Z,46.40
2018-09-12T11:06:39.512Z,47.70
2018-09-12T11:09:13.926Z,47.80
2018-09-12T11:11:47.408Z,49.40
2018-09-12T11:14:21.816Z,45.40
2018-09-12T11:16:55.256Z,46.60
2018-09-12T11:19:28.651Z,47.10
2018-09-12T11:22:02.065Z,45.70
2018-09-12T11:24:35.476Z,45.90
2018-09-12T11:27:08.874Z,47.20
2018-09-12T11:29:42.266Z,46.30
2018-09-12T11:32:15.732Z,43.40
2018-09-12T11:34:49.143Z,46.30
2018-09-12T11:37:22.582Z,45.50
2018-09-12T11:39:56.176Z,44.70
2018-09-12T11:42:29.595Z,44.40
2018-09-12T11:45:03.017Z,45.70
2018-09-12T11:47:36.445Z,44.40
2018-09-12T11:50:09.840Z,44.90
2018-09-12T11:52:43.251Z,45.70
2018-09-12T11:55:16.647Z,46.70
2018-09-12T11:57:50.055Z,45.70
2018-09-12T12:00:23.447Z,43.80
2018-09-12T12:02:56.887Z,44.70
2018-09-12T12:05:30.348Z,43.70
2018-09-12T12:08:03.784Z,44.20
2018-09-12T12:10:37.180Z,44.50
2018-09-12T12:13:10.587Z,44.50
2018-09-12T12:15:44.080Z,43.80
2018-09-12T12:18:17.490Z,44.80
2018-09-12T12:20:50.890Z,45.50
2018-09-12T12:23:24.315Z,42.40
2018-09-12T12:25:57.719Z,43.60
2018-09-12T12:28:31.167Z,45.00
2018-09-12T12:31:04.607Z,45.10
2018-09-12T12:33:38.017Z,43.90
2018-09-12T12:36:11.441Z,42.40
2018-09-12T12:38:44.864Z,43.60
2018-09-12T12:41:18.278Z,42.80
2018-09-12T12:43:51.677Z,42.50
2018-09-12T12:46:25.079Z,44.70
2018-09-12T12:48:58.510Z,43.90
2018-09-12T12:51:31.903Z,43.00
2018-09-12T12:54:05.319Z,42.90
2018-09-12T12:56:38.809Z,41.90
2018-09-12T12:59:12.275Z,43.70
2018-09-12T13:01:45.675Z,45.20
2018-09-12T13:04:19.088Z,43.40
2018-09-12T13:06:52.559Z,42.80
2018-09-12T13:09:25.963Z,41.50
2018-09-12T13:11:59.380Z,42.20
2018-09-12T13:14:32.789Z,42.80
2018-09-12T13:17:06.255Z,43.60
2018-09-12T13:19:39.683Z,42.80
2018-09-12T13:22:13.080Z,43.30
2018-09-12T13:24:46.504Z,42.70
2018-09-12T13:27:20.013Z,42.30
2018-09-12T13:29:53.467Z,44.40
2018-09-12T13:32:27.126Z,43.00
2018-09-12T13:35:00.619Z,43.30
2018-09-12T13:37:34.051Z,42.50
2018-09-12T13:40:07.553Z,41.80
2018-09-12T13:42:42.067Z,43.80
2018-09-12T13:45:15.462Z,43.90
2018-09-12T13:47:48.874Z,43.50
2018-09-12T13:50:22.263Z,44.40
2018-09-12T13:52:55.744Z,42.60
2018-09-12T13:55:29.140Z,44.00
2018-09-12T13:58:02.555Z,43.70
2018-09-12T14:00:35.984Z,43.00
2018-09-12T14:03:10.475Z,42.30
2018-09-12T14:05:43.879Z,42.60
2018-09-12T14:08:17.291Z,43.10
2018-09-12T14:10:50.675Z,42.80
2018-09-12T14:13:25.064Z,42.90
2018-09-12T14:16:01.574Z,43.80
2018-09-12T14:18:35.491Z,41.70
2018-09-12T14:21:09.141Z,42.20
2018-09-12T14:23:42.592Z,42.20
2018-09-12T14:26:15.999Z,41.50
2018-09-12T14:28:49.532Z,41.70
2018-09-12T14:31:22.992Z,43.60
2018-09-12T14:33:56.406Z,43.40
2018-09-12T14:36:30.811Z,43.50
2018-09-12T14:39:05.567Z,42.80
2018-09-12T15:26:17.974Z,41.70
2018-09-12T15:28:51.363Z,42.10
2018-09-12T15:31:24.835Z,41.90
2018-09-12T15:33:58.229Z,43.80
2018-09-12T15:36:31.657Z,42.90
2018-09-12T15:39:07.731Z,44.20
2018-09-12T15:41:41.459Z,42.50
2018-09-12T15:44:15.079Z,40.80
2018-09-12T15:46:48.486Z,41.10
2018-09-12T15:49:21.867Z,42.30
2018-09-12T15:51:55.331Z,43.50
2018-09-12T15:54:28.719Z,44.80
2018-09-12T15:57:02.220Z,44.00
2018-09-12T15:59:35.748Z,44.20
2018-09-12T16:02:09.168Z,42.60
2018-09-12T16:04:42.560Z,42.90
2018-09-12T16:07:15.959Z,41.70
2018-09-12T16:09:49.484Z,44.80
2018-09-12T16:12:22.887Z,44.60
2018-09-12T16:14:56.266Z,43.10
2018-09-12T16:17:29.696Z,44.40
2018-09-12T16:20:03.188Z,46.30
2018-09-12T16:22:36.668Z,46.00
2018-09-12T16:25:10.063Z,47.00
2018-09-12T16:27:43.533Z,47.50
2018-09-12T16:30:16.937Z,47.90
2018-09-12T16:32:50.339Z,48.30
2018-09-12T16:35:23.782Z,49.00
2018-09-12T16:37:57.171Z,50.30
2018-09-12T16:40:30.571Z,51.50
2018-09-12T16:43:03.938Z,51.20
2018-09-12T16:45:37.324Z,51.30
2018-09-12T16:48:10.686Z,52.40
2018-09-12T16:50:44.093Z,53.00
2018-09-12T16:53:17.831Z,52.30
2018-09-12T16:55:51.238Z,53.20
2018-09-12T16:58:24.641Z,51.80
2018-09-12T17:00:58.139Z,52.50
2018-09-12T17:03:31.548Z,52.20
2018-09-12T17:06:04.975Z,52.90
2018-09-12T17:08:38.332Z,51.00
2018-09-12T17:11:11.831Z,51.10
2018-09-12T17:13:45.205Z,50.90
2018-09-12T17:16:18.704Z,52.40
2018-09-12T17:18:52.075Z,51.50
2018-09-12T17:21:25.500Z,51.70
2018-09-12T17:23:58.863Z,53.60
2018-09-12T17:26:32.317Z,54.10
2018-09-12T17:29:05.801Z,54.50
2018-09-12T17:31:39.215Z,53.90
2018-09-12T17:34:12.687Z,54.10
2018-09-12T17:36:46.071Z,54.40
2018-09-12T17:39:19.488Z,54.40
2018-09-12T17:41:52.897Z,53.80
2018-09-12T17:44:26.283Z,53.70
2018-09-12T17:46:59.687Z,53.10
2018-09-12T17:49:33.082Z,49.60
2018-09-12T17:52:06.671Z,51.70
2018-09-12T17:54:40.064Z,50.80
2018-09-12T17:57:13.480Z,50.10
2018-09-12T17:59:46.899Z,51.10
2018-09-12T18:02:20.315Z,50.10
2018-09-12T18:04:53.703Z,50.40
2018-09-12T18:07:27.105Z,50.30
2018-09-12T18:10:00.579Z,51.70
2018-09-12T18:12:33.985Z,53.20
2018-09-12T18:15:07.414Z,53.30
2018-09-12T18:17:40.940Z,53.60
2018-09-12T18:20:14.259Z,53.50
2018-09-12T18:22:47.683Z,54.00
2018-09-12T18:25:21.090Z,54.00
2018-09-12T18:27:54.568Z,54.70
2018-09-12T18:30:27.969Z,54.30
2018-09-12T18:33:01.382Z,55.10
2018-09-12T18:35:34.847Z,55.20
2018-09-12T18:38:08.321Z,55.20
2018-09-12T18:40:41.679Z,55.50
2018-09-12T18:43:15.081Z,54.70
2018-09-12T18:45:48.463Z,53.70
2018-09-12T18:48:21.867Z,53.80
2018-09-12T18:50:55.308Z,53.50
2018-09-12T18:53:28.710Z,53.80
2018-09-12T18:56:02.094Z,54.20
2018-09-12T18:58:35.615Z,54.30
2018-09-12T19:01:09.099Z,54.50
2018-09-12T19:03:42.500Z,54.30
2018-09-12T19:06:15.999Z,55.30
2018-09-12T19:08:49.483Z,54.30
2018-09-12T19:11:22.895Z,54.00
2018-09-12T19:13:56.483Z,54.80
2018-09-12T19:16:30.023Z,55.50
2018-09-12T19:19:03.526Z,54.70
2018-09-12T19:21:37.000Z,54.50
2018-09-12T19:24:10.459Z,53.50
2018-09-12T19:26:43.907Z,53.00
2018-09-12T19:29:17.313Z,52.90
2018-09-12T19:31:50.719Z,53.00
2018-09-12T19:34:24.224Z,54.10
2018-09-12T19:36:57.778Z,54.50
2018-09-12T19:39:31.304Z,53.60
2018-09-12T19:42:04.810Z,55.10
2018-09-12T19:44:38.256Z,54.60
2018-09-12T19:47:11.688Z,55.70
2018-09-12T19:49:45.099Z,56.20
2018-09-12T19:52:18.480Z,55.60
2018-09-12T19:54:51.965Z,55.90
2018-09-12T19:57:25.500Z,56.00
2018-09-12T19:59:58.903Z,56.60
2018-09-12T20:02:33.459Z,56.30
2018-09-12T20:05:06.975Z,56.20
2018-09-12T20:07:40.376Z,56.00
2018-09-12T20:10:13.823Z,54.50
2018-09-12T20:12:47.218Z,55.30
2018-09-12T20:15:20.691Z,55.40
2018-09-12T20:17:54.080Z,55.70
2018-09-12T20:20:27.543Z,56.40
2018-09-12T20:23:01.051Z,56.70
2018-09-12T20:25:34.464Z,56.70
2018-09-12T20:28:07.968Z,56.90
2018-09-12T20:30:41.392Z,57.00
2018-09-12T20:33:14.870Z,57.30
2018-09-12T20:35:48.564Z,57.50
2018-09-12T20:38:21.915Z,57.40
2018-09-12T20:40:55.323Z,57.10
2018-09-12T20:43:28.723Z,57.00
2018-09-12T20:46:02.247Z,56.40
2018-09-12T20:48:35.636Z,57.00
2018-09-12T20:51:09.051Z,57.40
2018-09-12T20:53:42.494Z,57.50
2018-09-12T20:56:15.903Z,57.60
2018-09-12T20:58:49.302Z,57.60
2018-09-12T21:01:22.706Z,57.60
2018-09-12T21:03:56.196Z,58.00
2018-09-12T21:06:29.608Z,57.90
2018-09-12T21:09:03.491Z,58.00
2018-09-12T21:11:37.074Z,57.50
2018-09-12T21:14:10.798Z,58.00
2018-09-12T21:16:44.267Z,57.50
2018-09-12T21:19:17.647Z,57.60
2018-09-12T21:21:51.051Z,57.90
2018-09-12T21:24:24.444Z,57.70
2018-09-12T21:26:57.863Z,58.70
2018-09-12T21:29:31.387Z,59.70
2018-09-12T21:32:04.799Z,61.30
2018-09-12T21:34:38.184Z,61.60
2018-09-12T21:37:11.791Z,62.20
2018-09-12T21:39:45.218Z,62.80
2018-09-12T21:42:18.601Z,62.80
2018-09-12T21:44:51.996Z,62.70
2018-09-12T21:47:25.403Z,62.20
2018-09-12T21:49:58.780Z,62.00
2018-09-12T21:52:32.247Z,62.60
2018-09-12T21:55:05.617Z,63.00
2018-09-12T21:57:39.036Z,62.30
2018-09-12T22:00:12.460Z,62.60
2018-09-12T22:02:45.947Z,62.40
2018-09-12T22:05:19.338Z,62.30
2018-09-12T22:07:53.320Z,62.70
2018-09-12T22:10:26.710Z,63.20
2018-09-12T22:13:00.112Z,63.40
2018-09-12T22:15:33.608Z,63.00
2018-09-12T22:18:07.045Z,63.00
2018-09-12T22:20:40.450Z,63.40
2018-09-12T22:23:13.879Z,63.50
2018-09-12T22:25:47.315Z,65.40
2018-09-12T22:28:20.819Z,65.90
2018-09-12T22:30:54.208Z,65.30
2018-09-12T22:33:27.779Z,64.20
2018-09-12T22:36:01.162Z,65.70
2018-09-12T22:38:34.588Z,65.30
2018-09-12T22:41:07.967Z,66.20
2018-09-12T22:43:42.442Z,67.10
2018-09-12T22:46:15.833Z,66.40
2018-09-12T22:48:49.339Z,65.60
2018-09-12T22:51:22.711Z,65.60
2018-09-12T22:53:56.103Z,65.60
2018-09-12T22:56:29.471Z,65.20
2018-09-12T22:59:02.866Z,64.90
2018-09-12T23:01:36.238Z,65.10
2018-09-12T23:04:09.623Z,65.10
2018-09-12T23:06:42.996Z,64.80
2018-09-12T23:09:16.390Z,64.70
2018-09-12T23:11:49.751Z,64.80
2018-09-12T23:14:23.139Z,65.10
2018-09-12T23:16:56.520Z,64.70
2018-09-12T23:19:29.959Z,64.70
2018-09-12T23:22:03.374Z,65.60
2018-09-12T23:24:36.761Z,65.50
2018-09-12T23:27:10.132Z,66.20
2018-09-12T23:29:43.547Z,66.30
2018-09-12T23:32:16.915Z,65.70
2018-09-12T23:34:50.307Z,65.80
2018-09-12T23:37:23.699Z,66.30
2018-09-12T23:39:57.093Z,64.30
2018-09-12T23:42:30.503Z,66.80
2018-09-12T23:45:04.041Z,67.10
2018-09-12T23:47:37.460Z,67.00
2018-09-12T23:50:10.840Z,66.70
2018-09-12T23:52:44.207Z,67.10
2018-09-12T23:55:17.603Z,67.40
2018-09-12T23:57:50.973Z,66.90
